Wetterdaten: Woche 18.04.11 - 24.04.11 (KW16)
Datum Zeit Temperatur Luftfeuchte Luftdruck Niederschlag Windrichtung Sonnenschein Solar Wind
18.04.2011 00:00 6,2 C 71 % 1020,9 hPa 0,0 l/m N-NO 0,00 h 0 W/m 4,0 km/h (1 Bft)
18.04.2011 01:00 5,4 C 72 % 1020,6 hPa 0,0 l/m N-NO 0,00 h 0 W/m 3,6 km/h (1 Bft)
18.04.2011 02:00 4,9 C 74 % 1020,2 hPa 0,0 l/m N-NO 0,00 h 0 W/m 3,5 km/h (1 Bft)
18.04.2011 03:00 4,3 C 74 % 1020,0 hPa 0,0 l/m N 0,00 h 0 W/m 3,9 km/h (1 Bft)
18.04.2011 04:00 3,9 C 75 % 1020,2 hPa 0,0 l/m N 0,00 h 0 W/m 4,4 km/h (1 Bft)
18.04.2011 05:00 3,0 C 80 % 1020,2 hPa 0,0 l/m N 0,00 h 0 W/m 2,3 km/h (1 Bft)
18.04.2011 06:00 2,7 C 81 % 1020,3 hPa 0,0 l/m N 0,00 h 12 W/m 4,5 km/h (1 Bft)
18.04.2011 07:00 3,4 C 79 % 1020,5 hPa 0,0 l/m N 0,75 h 128 W/m 3,9 km/h (1 Bft)
18.04.2011 08:00 5,5 C 73 % 1020,8 hPa 0,0 l/m N 1,00 h 336 W/m 5,6 km/h (1 Bft)
18.04.2011 09:00 8,1 C 67 % 1020,8 hPa 0,0 l/m N 1,00 h 530 W/m 5,1 km/h (1 Bft)
18.04.2011 10:00 11,2 C 58 % 1020,5 hPa 0,0 l/m O-NO 1,00 h 658 W/m 6,1 km/h (2 Bft)
18.04.2011 11:00 13,2 C 54 % 1020,2 hPa 0,0 l/m SW 1,00 h 805 W/m 8,0 km/h (2 Bft)
18.04.2011 12:00 15,0 C 47 % 1019,6 hPa 0,0 l/m SW 1,00 h 858 W/m 8,0 km/h (2 Bft)
18.04.2011 13:00 16,6 C 41 % 1018,8 hPa 0,0 l/m O-SO 1,00 h 857 W/m 9,0 km/h (2 Bft)
18.04.2011 14:00 17,6 C 37 % 1018,1 hPa 0,0 l/m SO 1,00 h 797 W/m 9,4 km/h (2 Bft)
18.04.2011 15:00 17,7 C 36 % 1017,5 hPa 0,0 l/m W-NW 0,92 h 626 W/m 10,7 km/h (2 Bft)
18.04.2011 16:00 17,9 C 35 % 1016,7 hPa 0,0 l/m N-NO 1,00 h 563 W/m 10,2 km/h (2 Bft)
18.04.2011 17:00 17,8 C 32 % 1016,0 hPa 0,0 l/m W 1,00 h 412 W/m 6,8 km/h (2 Bft)
18.04.2011 18:00 17,6 C 30 % 1015,6 hPa 0,0 l/m N 1,00 h 218 W/m 5,3 km/h (1 Bft)
18.04.2011 19:00 16,7 C 34 % 1015,5 hPa 0,0 l/m O-NO 0,17 h 43 W/m 6,0 km/h (2 Bft)
18.04.2011 20:00 12,6 C 51 % 1015,6 hPa 0,0 l/m N 0,00 h 7 W/m 0,3 km/h (0 Bft)
18.04.2011 21:00 10,6 C 60 % 1015,9 hPa 0,0 l/m N 0,00 h 0 W/m 0,3 km/h (0 Bft)
18.04.2011 22:00 9,4 C 67 % 1016,0 hPa 0,0 l/m N 0,00 h 0 W/m 1,2 km/h (1 Bft)
18.04.2011 23:00 8,4 C 70 % 1015,8 hPa 0,0 l/m N 0,00 h 0 W/m 1,3 km/h (1 Bft)
19.04.2011 00:00 7,5 C 74 % 1015,7 hPa 0,0 l/m N 0,00 h 0 W/m 1,6 km/h (1 Bft)
19.04.2011 01:00 7,2 C 74 % 1015,6 hPa 0,0 l/m O-NO 0,00 h 0 W/m 3,9 km/h (1 Bft)
19.04.2011 02:00 6,9 C 74 % 1015,3 hPa 0,0 l/m N-NW 0,00 h 0 W/m 6,8 km/h (2 Bft)
19.04.2011 03:00 6,6 C 74 % 1015,0 hPa 0,0 l/m N-NW 0,00 h 0 W/m 6,1 km/h (2 Bft)
19.04.2011 04:00 5,8 C 77 % 1014,9 hPa 0,0 l/m N-NW 0,00 h 0 W/m 3,6 km/h (1 Bft)
19.04.2011 05:00 4,5 C 84 % 1015,0 hPa 0,0 l/m N 0,00 h 0 W/m 1,7 km/h (1 Bft)
19.04.2011 06:00 4,4 C 83 % 1015,1 hPa 0,0 l/m N 0,00 h 13 W/m 1,9 km/h (1 Bft)
19.04.2011 07:00 5,4 C 79 % 1015,3 hPa 0,0 l/m N-NW 0,83 h 125 W/m 3,3 km/h (1 Bft)
19.04.2011 08:00 7,8 C 71 % 1015,4 hPa 0,0 l/m N-NW 1,00 h 329 W/m 6,3 km/h (2 Bft)
19.04.2011 09:00 10,5 C 64 % 1015,3 hPa 0,0 l/m N-NO 1,00 h 522 W/m 6,4 km/h (2 Bft)
19.04.2011 10:00 13,4 C 58 % 1015,3 hPa 0,0 l/m NO 1,00 h 688 W/m 6,1 km/h (2 Bft)
19.04.2011 11:00 16,1 C 48 % 1015,1 hPa 0,0 l/m O-NO 1,00 h 814 W/m 10,5 km/h (2 Bft)
19.04.2011 12:00 17,6 C 38 % 1014,6 hPa 0,0 l/m NO 1,00 h 858 W/m 11,7 km/h (2 Bft)
19.04.2011 13:00 18,4 C 36 % 1014,3 hPa 0,0 l/m O-NO 1,00 h 849 W/m 13,6 km/h (3 Bft)
19.04.2011 14:00 19,3 C 34 % 1013,8 hPa 0,0 l/m NO 1,00 h 781 W/m 12,5 km/h (3 Bft)
19.04.2011 15:00 19,7 C 33 % 1013,3 hPa 0,0 l/m O-NO 1,00 h 688 W/m 15,8 km/h (3 Bft)
19.04.2011 16:00 19,6 C 33 % 1012,8 hPa 0,0 l/m O-NO 1,00 h 556 W/m 12,8 km/h (3 Bft)
19.04.2011 17:00 19,6 C 33 % 1012,5 hPa 0,0 l/m NO 1,00 h 374 W/m 13,5 km/h (3 Bft)
19.04.2011 18:00 19,0 C 34 % 1012,5 hPa 0,0 l/m O-NO 1,00 h 199 W/m 13,6 km/h (3 Bft)
19.04.2011 19:00 17,6 C 38 % 1012,5 hPa 0,0 l/m NO 0,00 h 45 W/m 12,6 km/h (3 Bft)
19.04.2011 20:00 14,7 C 49 % 1012,8 hPa 0,0 l/m N 0,08 h 8 W/m 3,9 km/h (1 Bft)
19.04.2011 21:00 12,2 C 59 % 1013,2 hPa 0,0 l/m NO 0,00 h 0 W/m 2,4 km/h (1 Bft)
19.04.2011 22:00 11,0 C 64 % 1013,4 hPa 0,0 l/m N-NO 0,00 h 0 W/m 3,9 km/h (1 Bft)
19.04.2011 23:00 10,0 C 69 % 1013,5 hPa 0,0 l/m NW 0,00 h 0 W/m 5,1 km/h (1 Bft)
20.04.2011 00:00 9,4 C 70 % 1013,6 hPa 0,0 l/m NW 0,00 h 0 W/m 4,0 km/h (1 Bft)
20.04.2011 01:00 8,8 C 70 % 1013,5 hPa 0,0 l/m NW 0,00 h 0 W/m 4,8 km/h (1 Bft)
20.04.2011 02:00 8,3 C 70 % 1013,5 hPa 0,0 l/m NW 0,00 h 0 W/m 4,9 km/h (1 Bft)
20.04.2011 03:00 7,6 C 73 % 1013,6 hPa 0,0 l/m NW 0,00 h 0 W/m 2,7 km/h (1 Bft)
20.04.2011 04:00 6,6 C 78 % 1013,6 hPa 0,0 l/m NW 0,00 h 0 W/m 3,7 km/h (1 Bft)
20.04.2011 05:00 6,3 C 77 % 1013,6 hPa 0,0 l/m NW 0,00 h 0 W/m 4,4 km/h (1 Bft)
20.04.2011 06:00 6,0 C 77 % 1013,9 hPa 0,0 l/m NW 0,08 h 15 W/m 5,3 km/h (1 Bft)
20.04.2011 07:00 6,8 C 75 % 1014,4 hPa 0,0 l/m NW 0,75 h 122 W/m 4,7 km/h (1 Bft)
20.04.2011 08:00 8,8 C 69 % 1014,6 hPa 0,0 l/m N-NW 1,00 h 318 W/m 5,2 km/h (1 Bft)
20.04.2011 09:00 11,7 C 62 % 1014,7 hPa 0,0 l/m NO 1,00 h 510 W/m 6,5 km/h (2 Bft)
20.04.2011 10:00 14,6 C 55 % 1014,7 hPa 0,0 l/m O 1,00 h 688 W/m 8,7 km/h (2 Bft)
20.04.2011 11:00 16,7 C 50 % 1014,6 hPa 0,0 l/m O 1,00 h 815 W/m 6,4 km/h (2 Bft)
20.04.2011 12:00 18,6 C 45 % 1014,3 hPa 0,0 l/m N-NO 1,00 h 868 W/m 7,8 km/h (2 Bft)
20.04.2011 13:00 20,1 C 42 % 1013,9 hPa 0,0 l/m NO 1,00 h 858 W/m 8,3 km/h (2 Bft)
20.04.2011 14:00 21,2 C 38 % 1013,5 hPa 0,0 l/m SO 1,00 h 783 W/m 9,3 km/h (2 Bft)
20.04.2011 15:00 21,6 C 35 % 1013,1 hPa 0,0 l/m N-NO 1,00 h 696 W/m 9,1 km/h (2 Bft)
20.04.2011 16:00 22,1 C 33 % 1012,7 hPa 0,0 l/m SO 1,00 h 546 W/m 7,9 km/h (2 Bft)
20.04.2011 17:00 22,3 C 33 % 1012,5 hPa 0,0 l/m NO 1,00 h 384 W/m 10,3 km/h (2 Bft)
20.04.2011 18:00 21,4 C 36 % 1012,4 hPa 0,0 l/m O 1,00 h 202 W/m 11,0 km/h (2 Bft)
20.04.2011 19:00 19,8 C 40 % 1012,6 hPa 0,0 l/m O-NO 0,00 h 46 W/m 6,6 km/h (2 Bft)
20.04.2011 20:00 16,3 C 53 % 1012,8 hPa 0,0 l/m N 0,00 h 7 W/m 0,7 km/h (0 Bft)
20.04.2011 21:00 14,1 C 59 % 1013,3 hPa 0,0 l/m N 0,00 h 0 W/m 0,8 km/h (0 Bft)
20.04.2011 22:00 12,6 C 64 % 1013,6 hPa 0,0 l/m N 0,00 h 0 W/m 0,7 km/h (0 Bft)
20.04.2011 23:00 11,6 C 66 % 1013,9 hPa 0,0 l/m N 0,00 h 0 W/m 2,1 km/h (1 Bft)
21.04.2011 00:00 10,8 C 69 % 1014,1 hPa 0,0 l/m O-NO 0,00 h 0 W/m 1,7 km/h (1 Bft)
21.04.2011 01:00 10,3 C 70 % 1014,3 hPa 0,0 l/m N 0,00 h 0 W/m 2,8 km/h (1 Bft)
21.04.2011 02:00 9,4 C 73 % 1014,3 hPa 0,0 l/m N 0,00 h 0 W/m 0,4 km/h (0 Bft)
21.04.2011 03:00 8,7 C 76 % 1014,4 hPa 0,0 l/m N 0,00 h 0 W/m 2,4 km/h (1 Bft)
21.04.2011 04:00 7,4 C 81 % 1014,5 hPa 0,0 l/m N 0,00 h 0 W/m 0,0 km/h (0 Bft)
21.04.2011 05:00 6,6 C 85 % 1014,5 hPa 0,0 l/m N 0,00 h 0 W/m 0,0 km/h (0 Bft)
21.04.2011 06:00 5,9 C 88 % 1014,7 hPa 0,0 l/m N 0,00 h 12 W/m 0,0 km/h (0 Bft)
21.04.2011 07:00 6,5 C 86 % 1015,0 hPa 0,0 l/m N 0,17 h 78 W/m 0,3 km/h (0 Bft)
21.04.2011 08:00 9,2 C 77 % 1014,9 hPa 0,0 l/m N 1,00 h 301 W/m 1,2 km/h (1 Bft)
21.04.2011 09:00 13,4 C 61 % 1015,1 hPa 0,0 l/m O-NO 1,00 h 497 W/m 3,1 km/h (1 Bft)
21.04.2011 10:00 16,3 C 53 % 1014,9 hPa 0,0 l/m O 1,00 h 664 W/m 5,2 km/h (1 Bft)
21.04.2011 11:00 18,7 C 44 % 1014,5 hPa 0,0 l/m O-SO 1,00 h 785 W/m 6,8 km/h (2 Bft)
21.04.2011 12:00 20,4 C 37 % 1013,9 hPa 0,0 l/m O-SO 1,00 h 846 W/m 11,1 km/h (2 Bft)
21.04.2011 13:00 22,0 C 33 % 1013,1 hPa 0,0 l/m O-NO 1,00 h 833 W/m 15,1 km/h (3 Bft)
21.04.2011 14:00 22,4 C 33 % 1012,6 hPa 0,0 l/m O-NO 1,00 h 731 W/m 18,5 km/h (3 Bft)
21.04.2011 15:00 22,5 C 31 % 1012,2 hPa 0,0 l/m O-NO 0,92 h 620 W/m 19,3 km/h (3 Bft)
21.04.2011 16:00 22,8 C 30 % 1011,6 hPa 0,0 l/m O-NO 1,00 h 545 W/m 16,2 km/h (3 Bft)
21.04.2011 17:00 22,8 C 30 % 1011,2 hPa 0,0 l/m O 0,92 h 360 W/m 14,0 km/h (3 Bft)
21.04.2011 18:00 22,0 C 32 % 1010,8 hPa 0,0 l/m O-NO 1,00 h 199 W/m 13,7 km/h (3 Bft)
21.04.2011 19:00 20,4 C 36 % 1010,6 hPa 0,0 l/m O 0,00 h 38 W/m 10,9 km/h (2 Bft)
21.04.2011 20:00 17,5 C 45 % 1010,7 hPa 0,0 l/m O-NO 0,00 h 7 W/m 2,9 km/h (1 Bft)
21.04.2011 21:00 14,6 C 55 % 1010,9 hPa 0,0 l/m N 0,00 h 0 W/m 1,6 km/h (1 Bft)
21.04.2011 22:00 13,4 C 59 % 1010,8 hPa 0,0 l/m N 0,00 h 0 W/m 2,9 km/h (1 Bft)
21.04.2011 23:00 12,5 C 62 % 1010,7 hPa 0,0 l/m NO 0,00 h 0 W/m 4,5 km/h (1 Bft)
22.04.2011 00:00 11,8 C 64 % 1010,4 hPa 0,0 l/m N-NW 0,00 h 0 W/m 3,7 km/h (1 Bft)
22.04.2011 01:00 10,7 C 70 % 1010,4 hPa 0,0 l/m N 0,00 h 0 W/m 2,5 km/h (1 Bft)
22.04.2011 02:00 9,6 C 74 % 1010,1 hPa 0,0 l/m N 0,00 h 0 W/m 0,9 km/h (0 Bft)
22.04.2011 03:00 9,1 C 76 % 1010,0 hPa 0,0 l/m N 0,00 h 0 W/m 0,8 km/h (0 Bft)
22.04.2011 04:00 8,2 C 79 % 1009,7 hPa 0,0 l/m N 0,00 h 0 W/m 0,4 km/h (0 Bft)
22.04.2011 05:00 7,5 C 82 % 1009,5 hPa 0,0 l/m N 0,00 h 0 W/m 0,3 km/h (0 Bft)
22.04.2011 06:00 6,8 C 85 % 1009,5 hPa 0,0 l/m N 0,00 h 17 W/m 0,0 km/h (0 Bft)
22.04.2011 07:00 8,1 C 81 % 1009,7 hPa 0,0 l/m N 0,92 h 137 W/m 0,1 km/h (0 Bft)
22.04.2011 08:00 11,6 C 69 % 1009,7 hPa 0,0 l/m N 1,00 h 342 W/m 1,9 km/h (1 Bft)
22.04.2011 09:00 14,9 C 55 % 1009,2 hPa 0,0 l/m SW 1,00 h 540 W/m 4,0 km/h (1 Bft)
22.04.2011 10:00 17,6 C 45 % 1008,8 hPa 0,0 l/m S-SO 1,00 h 710 W/m 7,5 km/h (2 Bft)
22.04.2011 11:00 19,7 C 39 % 1008,3 hPa 0,0 l/m S-SO 1,00 h 822 W/m 9,3 km/h (2 Bft)
22.04.2011 12:00 21,1 C 36 % 1007,9 hPa 0,0 l/m S-SO 1,00 h 886 W/m 7,6 km/h (2 Bft)
22.04.2011 13:00 22,1 C 32 % 1007,3 hPa 0,0 l/m W-SW 1,00 h 886 W/m 8,6 km/h (2 Bft)
22.04.2011 14:00 23,4 C 29 % 1006,8 hPa 0,0 l/m O-SO 1,00 h 819 W/m 11,4 km/h (2 Bft)
22.04.2011 15:00 23,9 C 27 % 1006,4 hPa 0,0 l/m O-NO 1,00 h 716 W/m 12,5 km/h (3 Bft)
22.04.2011 16:00 24,2 C 27 % 1005,7 hPa 0,0 l/m O-SO 1,00 h 582 W/m 12,3 km/h (3 Bft)
22.04.2011 17:00 23,8 C 27 % 1005,4 hPa 0,0 l/m NO 1,00 h 401 W/m 13,7 km/h (3 Bft)
22.04.2011 18:00 23,2 C 28 % 1005,3 hPa 0,0 l/m O 1,00 h 219 W/m 12,4 km/h (3 Bft)
22.04.2011 19:00 21,7 C 32 % 1005,4 hPa 0,0 l/m O 0,08 h 53 W/m 5,8 km/h (1 Bft)
22.04.2011 20:00 17,6 C 47 % 1005,8 hPa 0,0 l/m N 0,08 h 10 W/m 0,7 km/h (0 Bft)
22.04.2011 21:00 16,5 C 50 % 1006,3 hPa 0,0 l/m S-SW 0,00 h 0 W/m 3,5 km/h (1 Bft)
22.04.2011 22:00 17,1 C 50 % 1007,0 hPa 0,0 l/m SW 0,00 h 0 W/m 10,1 km/h (2 Bft)
22.04.2011 23:00 17,1 C 48 % 1006,7 hPa 0,0 l/m W-SW 0,00 h 0 W/m 9,5 km/h (2 Bft)
23.04.2011 00:00 15,1 C 58 % 1006,5 hPa 0,0 l/m S-SW 0,00 h 0 W/m 1,2 km/h (1 Bft)
23.04.2011 01:00 12,9 C 69 % 1006,8 hPa 0,0 l/m N 0,00 h 0 W/m 0,0 km/h (0 Bft)
23.04.2011 02:00 11,6 C 77 % 1007,0 hPa 0,0 l/m N 0,00 h 0 W/m 0,0 km/h (0 Bft)
23.04.2011 03:00 10,4 C 82 % 1007,1 hPa 0,0 l/m N 0,00 h 0 W/m 0,1 km/h (0 Bft)
23.04.2011 04:00 9,7 C 84 % 1007,3 hPa 0,0 l/m N 0,00 h 0 W/m 0,3 km/h (0 Bft)
23.04.2011 05:00 8,8 C 86 % 1007,2 hPa 0,0 l/m N 0,00 h 0 W/m 0,4 km/h (0 Bft)
23.04.2011 06:00 8,2 C 87 % 1007,5 hPa 0,0 l/m N 0,17 h 18 W/m 0,0 km/h (0 Bft)
23.04.2011 07:00 8,8 C 85 % 1007,8 hPa 0,0 l/m N 0,67 h 123 W/m 0,0 km/h (0 Bft)
23.04.2011 08:00 11,2 C 75 % 1008,0 hPa 0,0 l/m N 0,58 h 230 W/m 0,0 km/h (0 Bft)
23.04.2011 09:00 14,9 C 62 % 1008,0 hPa 0,0 l/m S-SW 0,83 h 486 W/m 6,7 km/h (2 Bft)
23.04.2011 10:00 18,3 C 45 % 1008,2 hPa 0,0 l/m S 0,92 h 621 W/m 10,1 km/h (2 Bft)
23.04.2011 11:00 20,1 C 38 % 1008,2 hPa 0,0 l/m SW 1,00 h 804 W/m 10,5 km/h (2 Bft)
23.04.2011 12:00 21,5 C 34 % 1007,9 hPa 0,0 l/m SW 1,00 h 841 W/m 10,9 km/h (2 Bft)
23.04.2011 13:00 22,5 C 30 % 1007,5 hPa 0,0 l/m SW 1,00 h 857 W/m 12,6 km/h (3 Bft)
23.04.2011 14:00 23,1 C 26 % 1007,5 hPa 0,0 l/m SW 1,00 h 748 W/m 11,1 km/h (2 Bft)
23.04.2011 15:00 23,2 C 25 % 1007,2 hPa 0,0 l/m SW 1,00 h 705 W/m 10,9 km/h (2 Bft)
23.04.2011 16:00 23,2 C 27 % 1007,1 hPa 0,0 l/m SW 1,00 h 555 W/m 10,9 km/h (2 Bft)
23.04.2011 17:00 23,0 C 28 % 1007,2 hPa 0,0 l/m SW 1,00 h 373 W/m 9,8 km/h (2 Bft)
23.04.2011 18:00 21,5 C 33 % 1007,4 hPa 0,0 l/m SW 0,17 h 123 W/m 10,3 km/h (2 Bft)
23.04.2011 19:00 20,0 C 36 % 1007,8 hPa 0,0 l/m W-SW 0,00 h 23 W/m 10,5 km/h (2 Bft)
23.04.2011 20:00 18,9 C 37 % 1008,3 hPa 0,0 l/m W-SW 0,00 h 6 W/m 11,4 km/h (2 Bft)
23.04.2011 21:00 17,9 C 40 % 1008,9 hPa 0,0 l/m W-SW 0,00 h 0 W/m 3,5 km/h (1 Bft)
23.04.2011 22:00 15,6 C 50 % 1009,2 hPa 0,0 l/m N 0,00 h 0 W/m 0,5 km/h (0 Bft)
23.04.2011 23:00 14,3 C 57 % 1009,6 hPa 0,0 l/m N 0,00 h 0 W/m 1,3 km/h (1 Bft)
24.04.2011 00:00 13,9 C 60 % 1009,6 hPa 0,0 l/m N 0,00 h 0 W/m 1,5 km/h (1 Bft)
24.04.2011 01:00 13,8 C 61 % 1009,8 hPa 0,0 l/m W-SW 0,00 h 0 W/m 2,5 km/h (1 Bft)
24.04.2011 02:00 13,0 C 67 % 1009,7 hPa 0,0 l/m N 0,00 h 0 W/m 1,5 km/h (1 Bft)
24.04.2011 03:00 13,0 C 67 % 1009,9 hPa 0,0 l/m N 0,00 h 0 W/m 1,1 km/h (0 Bft)
24.04.2011 04:00 13,2 C 67 % 1010,4 hPa 0,0 l/m W-SW 0,00 h 0 W/m 2,0 km/h (1 Bft)
24.04.2011 05:00 12,8 C 74 % 1011,0 hPa 0,0 l/m W-SW 0,00 h 0 W/m 2,9 km/h (1 Bft)
24.04.2011 06:00 12,5 C 78 % 1011,5 hPa 0,0 l/m N 0,00 h 5 W/m 2,1 km/h (1 Bft)
24.04.2011 07:00 12,0 C 85 % 1012,3 hPa 0,0 l/m N 0,00 h 14 W/m 1,2 km/h (1 Bft)
24.04.2011 08:00 11,9 C 89 % 1012,7 hPa 0,8 l/m SW 0,00 h 28 W/m 6,7 km/h (2 Bft)
24.04.2011 09:00 11,9 C 90 % 1012,6 hPa 0,2 l/m SW 0,00 h 46 W/m 11,7 km/h (2 Bft)
24.04.2011 10:00 12,8 C 88 % 1013,1 hPa 0,2 l/m SW 0,00 h 71 W/m 6,7 km/h (2 Bft)
24.04.2011 11:00 13,8 C 87 % 1013,9 hPa 0,4 l/m S-SW 0,08 h 258 W/m 3,6 km/h (1 Bft)
24.04.2011 12:00 15,9 C 75 % 1013,9 hPa 0,0 l/m S-SW 0,58 h 460 W/m 7,9 km/h (2 Bft)
24.04.2011 13:00 17,3 C 67 % 1013,5 hPa 0,0 l/m W 0,58 h 497 W/m 5,5 km/h (1 Bft)
24.04.2011 14:00 18,2 C 61 % 1013,3 hPa 0,0 l/m W-SW 0,00 h 270 W/m 6,8 km/h (2 Bft)
24.04.2011 15:00 18,6 C 56 % 1013,0 hPa 0,0 l/m W-SW 0,00 h 278 W/m 5,2 km/h (1 Bft)
24.04.2011 16:00 19,3 C 53 % 1012,7 hPa 0,0 l/m SW 0,50 h 278 W/m 6,5 km/h (2 Bft)
24.04.2011 17:00 18,9 C 53 % 1012,7 hPa 0,0 l/m SW 0,00 h 165 W/m 4,3 km/h (1 Bft)
24.04.2011 18:00 19,4 C 53 % 1012,7 hPa 0,0 l/m W 0,67 h 180 W/m 5,9 km/h (2 Bft)
24.04.2011 19:00 18,4 C 59 % 1012,8 hPa 0,0 l/m N 0,08 h 47 W/m 2,8 km/h (1 Bft)
24.04.2011 20:00 15,5 C 72 % 1013,2 hPa 0,0 l/m N 0,00 h 7 W/m 1,9 km/h (1 Bft)
24.04.2011 21:00 14,0 C 76 % 1013,9 hPa 0,0 l/m N 0,00 h 0 W/m 2,1 km/h (1 Bft)
24.04.2011 22:00 12,8 C 79 % 1014,4 hPa 0,0 l/m N 0,00 h 0 W/m 3,2 km/h (1 Bft)
24.04.2011 23:00 11,3 C 86 % 1014,7 hPa 0,0 l/m N 0,00 h 0 W/m 2,0 km/h (1 Bft)
Min-Datum _ 18.04.11 23.04.11 22.04.11 - - - - 18.04.11
_ Min-Zeit 06:30 15:05 17:15 - - - - 04:50
Minimum _ 2,5 C 22 % 1005,1 hPa - - - - 0,0 km/h (0 Bft)
Max-Datum _ 22.04.11 24.04.11 18.04.11 24.04.11 - 19.04.11 22.04.11 21.04.11
_ Max-Zeit 16:45 08:55 00:00 08:05 - 17:15 13:00 14:55
Maximum _ 24,4 C 91 % 1020,9 hPa 0,8 l/m - 0,17 h 902 W/m 25,7 km/h
O-NO (4 Bft)
Durchschnitt _ 14,1 C 58 % 1012,5 hPa #1,6 l/m SW #71:30 h 413 W/m 5,7 km/h (1 Bft)